Terminal Aerodrome Forecast
Issued by NWS Shreveport, LA

Home | Current Version | Previous Version | Text Only | Print | Product List | Glossary On
Versions: 1 2 3 4 5 6 7 8 9 10 11 12 13 14 15 16 17 18 19 20 21 22
000
FTUS44 KSHV 281142
TAFELD
TAF
KELD 281142Z 2812/2912 00000KT P6SM FEW250
     FM281500 VRB03KT P6SM FEW015 SCT025 BKN100
     FM281800 VRB05KT P6SM VCTS BKN050CB
     FM290100 VRB02KT P6SM SCT250=

USA.gov is the U.S. government's official web portal to all federal, state and local government web resources and services.